Flight Track Log - Related Links

Times and Time Zones

All times are in EDT time to prevent confusion due to time zone crossing. See the N27FB flight status page for this flight to view local times or setup timezone preferences in your user account.

Time Position Orientation Groundspeed Altitude Reporting Facility
EDT Latitude Longitude Course Direction KTS MPH feet Rate Location/Type
Tue 07:03:25 PM 39.2000 -76.6833 21° North 99 114 1,100  Level Potomac TRACON
Tue 07:04:25 PM 39.2333 -76.6667 21° North 126 145 1,800 744 Climbing Potomac TRACON
Tue 07:05:26 PM 39.2667 -76.6500 21° North 132 152 2,600 898 Climbing Potomac TRACON
Tue 07:06:32 PM 39.2833 -76.6000 67° East 129 148 3,700 857 Climbing Potomac TRACON
Tue 07:07:32 PM 39.2833 -76.5500 90° East 141 162 4,400 645 Climbing Potomac TRACON
Tue 07:08:33 PM 39.2833 -76.5000 90° East 144 166 5,000 283 Climbing Potomac TRACON
Tue 07:09:39 PM 39.2833 -76.4333 90° East 168 193 5,000  Level Potomac TRACON
Tue 07:10:39 PM 39.2667 -76.3667 108° East 175 201 5,000  Level Potomac TRACON
Tue 07:11:33 PM 39.2667 -76.3167 90° East 176 203 5,000  Level Potomac TRACON
Tue 07:12:39 PM 39.2667 -76.2500 90° East 177 204 5,000  Level Potomac TRACON
Tue 07:13:39 PM 39.2667 -76.1833 90° East 177 204 5,000  Level Potomac TRACON
Tue 07:14:39 PM 39.2667 -76.1167 90° East 176 203 5,000  Level Potomac TRACON
Tue 07:16:00 PM 39.3074 -76.0598 83° East  Level Estimated
Tue 07:23:00 PM 39.5183 -75.7639 83° East  Level Estimated
Tue 07:23:26 PM 39.2333 -75.5833 101° East 169 194 5,000  Level Philadelphia TRACON
Tue 07:24:00 PM 39.4816 -75.7316 146° Southeast  Level FlightAware Approximate
Tue 07:25:00 PM 39.4448 -75.6993 146° Southeast  Level FlightAware Approximate
Tue 07:25:00 PM 39.2676 -75.5036 61° Northeast  Level FlightAware Approximate
Tue 07:26:00 PM 39.4755 -75.6577 40° Northeast  Level Estimated
Tue 07:27:00 PM 39.4667 -75.6013 101° East  Level FlightAware Approximate
Tue 07:28:00 PM 39.4579 -75.5449 101° East  Level FlightAware Approximate
Tue 07:32:00 PM 39.4962 -75.2222 49° Northeast  Level Estimated
Tue 07:33:00 PM 39.5046 -75.1648 79° East  Level FlightAware Approximate
Tue 07:34:00 PM 39.5129 -75.1074 79° East  Level FlightAware Approximate
Tue 07:35:00 PM 39.5213 -75.0500 79° East  Level FlightAware Approximate
Tue 07:36:00 PM 39.5296 -74.9926 79° East  Level FlightAware Approximate
Tue 07:37:00 PM 39.5629 -74.9533 57° Northeast  Level Estimated
Tue 07:38:00 PM 39.5835 -74.9013 63° Northeast  Level FlightAware Approximate
Tue 07:39:00 PM 39.6041 -74.8494 63° Northeast  Level FlightAware Approximate
Tue 07:40:00 PM 39.6247 -74.7974 63° Northeast  Level FlightAware Approximate
Tue 07:41:00 PM 39.6583 -74.7584 52° Northeast  Level Estimated
Tue 07:42:00 PM 39.6784 -74.7061 63° Northeast  Level FlightAware Approximate
Tue 07:43:00 PM 39.7121 -74.6672 57° Northeast  Level Estimated
Tue 07:44:00 PM 39.7337 -74.6158 61° Northeast  Level FlightAware Approximate
Tue 07:45:00 PM 39.7552 -74.5643 61° Northeast  Level FlightAware Approximate
Tue 07:46:00 PM 39.7766 -74.5128 61° Northeast  Level FlightAware Approximate
Tue 07:47:00 PM 39.7981 -74.4613 62° Northeast  Level FlightAware Approximate
Tue 07:48:00 PM 39.8322 -74.4230 35° Northeast  Level Estimated
Tue 07:49:00 PM 39.8676 -74.3866 38° Northeast  Level FlightAware Approximate
Tue 07:50:00 PM 39.9029 -74.3502 38° Northeast  Level FlightAware Approximate
Tue 07:51:00 PM 39.9382 -74.3138 38° Northeast  Level FlightAware Approximate
Tue 07:52:00 PM 39.9736 -74.2773 38° Northeast  Level FlightAware Approximate
Tue 07:53:00 PM 40.0075 -74.2387 43° Northeast  Level Estimated
Tue 07:53:33 PM 40.0667 -74.1833 49° Northeast 165 190 5,100  Level New York TRACON
Tue 07:54:00 PM 40.0411 -74.1995 42° Northeast  Level FlightAware Approximate
Tue 07:54:33 PM 40.1167 -74.1500 27° Northeast 168 193 5,000  Level New York TRACON
Tue 07:55:00 PM 40.0750 -74.1608 21° North  Level Estimated
Tue 07:55:33 PM 40.1500 -74.1333 21° North 166 191 5,000  Level New York TRACON
Tue 07:56:00 PM 40.1164 -74.1376 23° Northeast  Level FlightAware Approximate
Tue 07:56:33 PM 40.1833 -74.1000 37° Northeast 164 189 5,000  Level New York TRACON
Tue 07:57:00 PM 40.1578 -74.1144 23° Northeast  Level FlightAware Approximate
Tue 07:57:39 PM 40.2333 -74.0667 27° Northeast 163 188 5,000  Level New York TRACON
Tue 07:58:00 PM 40.1915 -74.0752 49° Northeast  Level Estimated
Tue 07:58:39 PM 40.2667 -74.0333 37° Northeast 166 191 5,000  Level New York TRACON
Tue 07:59:39 PM 40.3167 -74.0167 14° North 165 190 5,000  Level New York TRACON
Tue 08:00:39 PM 40.3500 -73.9833 37° Northeast 163 188 5,000  Level New York TRACON
Tue 08:01:39 PM 40.3833 -73.9500 37° Northeast 161 185 5,000 200 Level New York TRACON
Tue 08:02:39 PM 40.4333 -73.9167 27° Northeast 149 171 5,400 381 Climbing New York TRACON
Tue 08:03:45 PM 40.4667 -73.9000 21° North 151 174 5,800 381 Climbing New York TRACON
Tue 08:04:45 PM 40.5000 -73.8667 37° Northeast 150 173 6,200 421 Climbing New York TRACON
Tue 08:05:39 PM 40.5333 -73.8500 21° North 145 167 6,600 421 Climbing New York TRACON
Tue 08:06:39 PM 40.5667 -73.8167 37° Northeast 141 162 7,000 200 Climbing New York TRACON
Tue 08:07:39 PM 40.6167 -73.7833 27° Northeast 147 169 7,000  Level New York TRACON
Tue 08:08:39 PM 40.6333 -73.7667 37° Northeast 140 161 7,000  Level New York TRACON
Tue 08:09:39 PM 40.6833 -73.7167 37° Northeast 152 175 7,000  Level New York TRACON
Tue 08:10:39 PM 40.7167 -73.6833 37° Northeast 163 188 7,000  Level New York TRACON
Tue 08:11:39 PM 40.7500 -73.6333 49° Northeast 164 189 7,000  Level New York TRACON
Tue 08:12:39 PM 40.7833 -73.6000 37° Northeast 166 191 7,000  Level New York TRACON
Tue 08:13:45 PM 40.8333 -73.5500 37° Northeast 164 189 7,000  Level New York TRACON
Tue 08:14:39 PM 40.8333 -73.5000 90° East 166 191 7,000  Level New York TRACON
Tue 08:15:45 PM 40.8500 -73.4500 66° East 169 194 7,000  Level New York TRACON
Tue 08:16:39 PM 40.8500 -73.3833 90° East 168 193 7,000  Level New York TRACON
Tue 08:17:39 PM 40.8833 -73.3333 49° Northeast 171 197 7,000  Level New York TRACON
Tue 08:18:39 PM 40.9167 -73.3000 37° Northeast 171 197 7,000  Level New York TRACON
Tue 08:19:39 PM 40.9667 -73.2667 27° Northeast 173 199 7,000  Level New York TRACON
Tue 08:20:39 PM 41.0000 -73.2333 37° Northeast 173 199 7,000  Level New York TRACON
Tue 08:21:39 PM 41.0333 -73.1833 49° Northeast 173 199 7,000  Level New York TRACON
Tue 08:22:39 PM 41.0667 -73.1500 37° Northeast 171 197 7,000  Level New York TRACON
Tue 08:23:39 PM 41.1000 -73.1167 37° Northeast 172 198 7,000  Level New York TRACON
Tue 08:24:39 PM 41.1500 -73.0667 37° Northeast 170 196 7,000  Level New York TRACON
Tue 08:25:33 PM 41.1833 -73.0333 37° Northeast 172 198 7,000  Level New York TRACON
Tue 08:26:33 PM 41.2167 -73.0000 37° Northeast 170 196 7,000  Level New York TRACON
Tue 08:28:05 PM 41.2719 -72.9372 40° Northeast 170 196 7,000  Level Boston Center
Tue 08:29:05 PM 41.3075 -72.8989 39° Northeast 168 193 7,000  Level Boston Center
Tue 08:30:00 PM 41.3408 -72.8658 37° Northeast 168 193 7,000  Level Boston Center
Tue 08:31:07 PM 41.3806 -72.8247 38° Northeast 167 192 7,000  Level Boston Center
Tue 08:32:07 PM 41.4183 -72.7861 37° Northeast 169 194 7,000  Level Boston Center
Tue 08:33:08 PM 41.4581 -72.7447 38° Northeast 170 196 7,000  Level Boston Center
Tue 08:34:15 PM 41.4956 -72.7006 41° Northeast 171 197 7,000  Level Boston Center
Tue 08:35:15 PM 41.5311 -72.6619 39° Northeast 170 196 7,000  Level Boston Center
Tue 08:36:16 PM 41.5686 -72.6233 38° Northeast 171 197 7,000  Level Boston Center
Tue 08:37:17 PM 41.6064 -72.5844 38° Northeast 168 193 7,000  Level Boston Center
Tue 08:38:05 PM 41.6333 -72.5511 43° Northeast 161 185 7,000  Level Boston Center
Tue 08:39:18 PM 41.6772 -72.5039 39° Northeast 165 190 7,000  Level Boston Center
Tue 08:40:13 PM 41.7106 -72.4678 39° Northeast 167 192 7,000  Level Boston Center
Tue 08:41:26 PM 41.7522 -72.4206 40° Northeast 168 193 7,000  Level Boston Center
Tue 08:42:26 PM 41.7919 -72.3817 36° Northeast 167 192 7,000  Level Boston Center
Tue 08:43:21 PM 41.8211 -72.3453 43° Northeast 167 192 7,000  Level Boston Center
Tue 08:44:40 PM 41.8708 -72.2922 38° Northeast 166 191 7,000  Level Boston Center
Tue 08:45:34 PM 41.9022 -72.2589 38° Northeast 167 192 7,000  Level Boston Center
Tue 08:46:35 PM 41.9397 -72.2139 42° Northeast 166 191 7,000  Level Boston Center
Tue 08:47:36 PM 41.9750 -72.1747 40° Northeast 165 190 7,000 -157 Level Boston Center
Tue 08:48:30 PM 42.0081 -72.1383 39° Northeast 173 199 6,700 -408 Descending Boston Center
Tue 08:49:19 PM 42.0394 -72.1047 38° Northeast 179 206 6,300 -550 Descending Boston Center
Tue 08:50:19 PM 42.0789 -72.0625 38° Northeast 183 211 5,700 -496 Descending Boston Center
Tue 08:51:20 PM 42.1161 -72.0203 40° Northeast 177 204 5,300 -344 Descending Boston Center
Tue 08:52:21 PM 42.1514 -71.9781 42° Northeast 162 186 5,000 -157 Descending Boston Center
Tue 08:53:15 PM 42.1825 -71.9469 37° Northeast 158 182 5,000  Level Boston Center
Tue 08:54:16 PM 42.2178 -71.9047 42° Northeast 162 186 5,000  Level Boston Center
Tue 08:55:52 PM 42.2667 -71.8333 47° Northeast 162 186 5,000 -37 Level KA90
Tue 08:56:58 PM 42.3167 -71.8000 26° Northeast 163 188 4,900 -40 Descending KA90
Tue 08:58:22 PM 42.3667 -71.7333 45° Northeast 163 188 4,900 -200 Level KA90
Tue 08:58:58 PM 42.3833 -71.7167 36° Northeast 167 192 4,500 -647 Descending KA90
Tue 09:00:04 PM 42.4333 -71.6667 36° Northeast 179 206 3,800 -571 Descending KA90
Tue 09:01:04 PM 42.4667 -71.6333 36° Northeast 158 182 3,300 -400 Descending KA90
Tue 09:02:04 PM 42.4833 -71.5833 66° East 147 169 3,000 -143 Descending KA90
Tue 09:03:10 PM 42.5000 -71.5333 66° East 137 158 3,000  Level KA90
Tue 09:04:04 PM 42.4833 -71.5000 124° Southeast 117 135 3,000 -316 Level KA90
Tue 09:05:04 PM 42.4833 -71.4500 90° East 114 131 2,400 -579 Descending KA90
Tue 09:05:58 PM 42.4833 -71.4167 90° East 114 131 1,900 -550 Descending KA90
Tue 09:07:04 PM 42.4833 -71.3833 90° East 111 128 1,300 -550 Descending KA90
Tue 09:07:58 PM 42.4833 -71.3500 90° East 110 127 800 -556 Descending KA90
Tue 09:09:00 PM 42.4667 -71.2833 66° East  Level FlightAware Approximate
Tue 09:16:00 PM 42.4699 -71.2890 66° East  Level Estimated
Tue 09:17:00 PM 42.4667 -71.2833 66° East  Level FlightAware Approximate

Login

Don't have an account? Register now (free) for customized features, flight alerts, and more!